Time;durP1;ratioP1;P1;durP2;ratioP2;P2;SDS_P1;SDS_P2;PMS_P1;PMS_P2;Temp;Humidity;BMP_temperature;BMP_pressure;BME280_temperature;BME280_humidity;BME280_pressure;Samples;Min_cycle;Max_cycle;Signal;HPM_P1;HPM_P2
2023/03/08 00:01:33;;;;;;;0.20;0.00;;;12.90;99.90;;;;;;21104172;28;20733;-71
2023/03/08 00:11:37;;;;;;;0.20;0.10;;;12.80;99.90;;;;;;21111667;28;20424;-70
2023/03/08 00:21:42;;;;;;;0.20;0.10;;;12.60;99.90;;;;;;21111410;28;20500;-70
2023/03/08 00:31:45;;;;;;;0.20;0.00;;;12.10;99.90;;;;;;21077140;28;20913;-70
2023/03/08 00:41:51;;;;;;;0.20;0.10;;;11.70;99.90;;;;;;21070389;28;20899;-70
2023/03/08 00:51:55;;;;;;;0.20;0.10;;;11.20;99.90;;;;;;21090453;28;20412;-71
2023/03/08 01:02:01;;;;;;;0.20;0.10;;;10.90;99.90;;;;;;21067286;28;20784;-71
2023/03/08 01:12:05;;;;;;;0.20;0.10;;;10.70;99.90;;;;;;21065400;28;20412;-71
2023/03/08 01:22:11;;;;;;;0.20;0.00;;;10.80;99.90;;;;;;21066691;28;20401;-71
2023/03/08 01:32:15;;;;;;;0.20;0.10;;;10.80;99.90;;;;;;21047535;28;20776;-70
2023/03/08 01:42:20;;;;;;;0.20;0.10;;;10.50;99.90;;;;;;21069571;28;20482;-71
2023/03/08 01:52:28;;;;;;;0.20;0.10;;;10.30;99.90;;;;;;21130763;28;20938;-69
2023/03/08 02:02:40;;;;;;;0.20;0.00;;;10.20;99.90;;;;;;21138074;28;20435;-69
2023/03/08 02:12:44;;;;;;;0.20;0.10;;;10.00;99.90;;;;;;21113953;27;20419;-69
2023/03/08 02:22:52;;;;;;;0.20;0.10;;;9.90;99.90;;;;;;21061565;28;20419;-69
2023/03/08 02:32:55;;;;;;;0.20;0.10;;;10.00;99.90;;;;;;21061192;28;20412;-69
2023/03/08 02:43:01;;;;;;;0.20;0.08;;;9.80;99.90;;;;;;21060062;28;20479;-70
2023/03/08 02:53:05;;;;;;;0.20;0.10;;;9.90;99.90;;;;;;21060207;28;20891;-70
2023/03/08 03:03:10;;;;;;;0.20;0.10;;;9.80;99.90;;;;;;21059686;28;20400;-69
2023/03/08 03:13:14;;;;;;;0.20;0.00;;;9.90;99.90;;;;;;21060290;28;20915;-69
2023/03/08 03:23:19;;;;;;;0.20;0.07;;;9.70;99.90;;;;;;21042427;28;20790;-69
2023/03/08 03:33:23;;;;;;;0.20;0.10;;;9.90;99.90;;;;;;21059917;28;20428;-70
2023/03/08 03:43:28;;;;;;;0.20;0.10;;;10.20;99.90;;;;;;21072611;28;20538;-71
2023/03/08 03:53:33;;;;;;;0.20;0.00;;;9.90;99.90;;;;;;21072335;28;20450;-71
2023/03/08 04:03:39;;;;;;;0.20;0.00;;;9.80;99.90;;;;;;21072818;28;20754;-71
2023/03/08 04:13:43;;;;;;;0.20;0.10;;;9.90;99.90;;;;;;21072129;28;20439;-70
2023/03/08 04:23:48;;;;;;;0.20;0.00;;;10.00;99.90;;;;;;21069816;28;20755;-71
2023/03/08 04:33:53;;;;;;;0.20;0.10;;;11.00;99.90;;;;;;21068704;28;20408;-70
2023/03/08 04:43:58;;;;;;;0.20;0.10;;;12.10;99.90;;;;;;21103243;28;20813;-70
2023/03/08 04:54:03;;;;;;;0.20;0.00;;;12.70;99.90;;;;;;21067351;28;20923;-70
2023/03/08 05:04:10;;;;;;;0.20;0.10;;;12.90;99.90;;;;;;21066382;28;20438;-69
2023/03/08 05:14:14;;;;;;;0.20;0.00;;;13.00;99.90;;;;;;21066350;28;20733;-70
2023/03/08 05:24:20;;;;;;;0.20;0.00;;;12.80;99.90;;;;;;21064396;28;20404;-72
2023/03/08 05:34:24;;;;;;;0.20;0.08;;;12.80;99.90;;;;;;21065210;28;20412;-72
2023/03/08 05:44:29;;;;;;;0.20;0.10;;;13.30;99.90;;;;;;21087534;28;20912;-71
2023/03/08 05:54:33;;;;;;;0.20;0.10;;;13.50;99.90;;;;;;21141960;28;20846;-70
2023/03/08 06:04:38;;;;;;;0.20;0.00;;;13.60;99.90;;;;;;21146774;28;20897;-69
2023/03/08 06:14:42;;;;;;;0.20;0.00;;;13.70;99.90;;;;;;21145179;28;20418;-69
2023/03/08 06:24:49;;;;;;;0.20;0.10;;;13.70;99.90;;;;;;21143434;28;20398;-70
2023/03/08 06:34:52;;;;;;;0.20;0.10;;;13.50;99.90;;;;;;21143101;28;20464;-70
2023/03/08 06:44:58;;;;;;;0.20;0.10;;;13.50;99.90;;;;;;21143715;28;20950;-71
2023/03/08 06:55:02;;;;;;;0.20;0.10;;;13.50;99.90;;;;;;21143281;28;20418;-71
2023/03/08 07:05:08;;;;;;;0.20;0.00;;;13.70;99.90;;;;;;21139875;28;20514;-71
2023/03/08 07:15:13;;;;;;;0.20;0.00;;;13.90;99.90;;;;;;21152450;28;20403;-71
2023/03/08 07:25:20;;;;;;;0.20;0.05;;;14.10;99.90;;;;;;21158388;28;20409;-69
2023/03/08 07:35:24;;;;;;;0.20;0.00;;;14.60;99.90;;;;;;21156293;28;20513;-70
2023/03/08 07:45:30;;;;;;;0.20;0.10;;;14.90;99.90;;;;;;21156764;28;20409;-70
2023/03/08 07:55:33;;;;;;;0.20;0.10;;;15.10;99.90;;;;;;21151566;28;20407;-69
2023/03/08 08:05:39;;;;;;;0.20;0.00;;;15.50;99.90;;;;;;21110072;28;20487;-70
2023/03/08 08:15:43;;;;;;;0.20;0.10;;;15.80;99.90;;;;;;21116196;28;20420;-79
2023/03/08 08:25:49;;;;;;;0.20;0.10;;;16.10;99.90;;;;;;21105155;28;20891;-70
2023/03/08 08:35:52;;;;;;;0.20;0.10;;;16.20;99.90;;;;;;21115758;28;20453;-70
2023/03/08 08:45:59;;;;;;;0.20;0.10;;;16.40;99.90;;;;;;21148434;28;20465;-70
2023/03/08 08:56:12;;;;;;;0.20;0.00;;;16.70;99.90;;;;;;21100403;28;20416;-69
2023/03/08 09:06:31;;;;;;;0.20;0.10;;;16.90;99.90;;;;;;21092181;28;20399;-73
2023/03/08 09:16:35;;;;;;;0.20;0.05;;;17.10;99.90;;;;;;21104862;28;20477;-71
2023/03/08 09:26:40;;;;;;;0.20;0.10;;;17.40;99.90;;;;;;21105144;28;20392;-71
2023/03/08 09:36:45;;;;;;;0.20;0.10;;;17.60;99.90;;;;;;21101644;28;20849;-71
2023/03/08 09:46:55;;;;;;;0.20;0.10;;;17.90;99.90;;;;;;21103459;28;20408;-69
2023/03/08 09:57:03;;;;;;;0.20;0.10;;;18.00;99.90;;;;;;21084896;28;20464;-71
2023/03/08 10:07:20;;;;;;;0.20;0.00;;;18.50;99.90;;;;;;21101846;28;20406;-72
2023/03/08 10:17:31;;;;;;;0.20;0.10;;;19.10;99.90;;;;;;21074513;28;20410;-69
2023/03/08 10:27:39;;;;;;;0.20;0.10;;;18.80;99.90;;;;;;21108300;28;20391;-69
2023/03/08 10:37:42;;;;;;;0.20;0.10;;;19.70;99.90;;;;;;21143727;28;20417;-69
2023/03/08 10:47:56;;;;;;;0.20;0.03;;;19.70;99.90;;;;;;21152961;28;20394;-69
2023/03/08 10:58:02;;;;;;;0.20;0.00;;;20.30;99.90;;;;;;21097306;28;20484;-70
2023/03/08 11:08:18;;;;;;;0.20;0.00;;;20.80;99.90;;;;;;21070831;28;20392;-71
2023/03/08 11:18:33;;;;;;;0.20;0.00;;;20.70;99.90;;;;;;21074535;28;20416;-72
2023/03/08 11:28:49;;;;;;;0.20;0.00;;;21.10;99.90;;;;;;21073270;28;20410;-71
2023/03/08 11:38:58;;;;;;;0.20;0.00;;;22.50;99.90;;;;;;21073111;28;20408;-71
2023/03/08 11:49:23;;;;;;;0.20;0.00;;;23.30;99.90;;;;;;21070902;28;20389;-71
2023/03/08 11:59:33;;;;;;;0.20;0.00;;;23.80;99.90;;;;;;21071709;28;20449;-71
2023/03/08 12:09:52;;;;;;;0.20;0.00;;;24.20;99.90;;;;;;21069669;28;20397;-70
2023/03/08 12:19:56;;;;;;;0.20;0.00;;;24.60;99.90;;;;;;21068440;28;20400;-70
2023/03/08 12:30:11;;;;;;;0.20;0.00;;;24.30;99.90;;;;;;21067130;28;20400;-72
2023/03/08 12:40:30;;;;;;;0.20;0.00;;;24.90;99.90;;;;;;21088824;28;20393;-68
2023/03/08 12:50:41;;;;;;;0.20;0.00;;;24.20;99.90;;;;;;21132104;28;20403;-68
2023/03/08 13:00:45;;;;;;;0.20;0.00;;;22.70;99.90;;;;;;21065515;28;20414;-69
2023/03/08 13:11:03;;;;;;;0.20;0.00;;;25.60;99.90;;;;;;21060578;28;20894;-69
2023/03/08 13:21:26;;;;;;;0.20;0.00;;;25.00;99.90;;;;;;21061694;28;20396;-65
2023/03/08 13:31:32;;;;;;;0.20;0.00;;;24.50;99.90;;;;;;21062488;28;20778;-68
2023/03/08 13:41:38;;;;;;;0.20;0.00;;;21.20;99.90;;;;;;21057688;28;20385;-69
2023/03/08 13:51:44;;;;;;;0.20;0.00;;;20.90;99.90;;;;;;21070019;28;20420;-66
2023/03/08 14:01:48;;;;;;;0.20;0.00;;;24.30;99.90;;;;;;21100815;28;20397;-68
2023/03/08 14:12:00;;;;;;;0.20;0.00;;;25.20;99.90;;;;;;21066463;28;20424;-66
2023/03/08 14:22:13;;;;;;;0.20;0.00;;;25.60;99.90;;;;;;21086658;28;20513;-69
2023/03/08 14:32:30;;;;;;;0.20;0.00;;;22.80;99.90;;;;;;21095451;28;20406;-68
2023/03/08 14:42:42;;;;;;;0.20;0.00;;;22.40;99.90;;;;;;21075831;28;20414;-66
2023/03/08 14:52:49;;;;;;;0.20;0.00;;;22.90;99.90;;;;;;21092695;28;20414;-67
2023/03/08 15:02:54;;;;;;;0.20;0.00;;;22.80;99.90;;;;;;21093366;28;20490;-67
2023/03/08 15:12:59;;;;;;;0.20;0.00;;;23.80;99.90;;;;;;21093093;28;20410;-67
2023/03/08 15:23:07;;;;;;;0.20;0.00;;;23.80;99.90;;;;;;21093671;28;20460;-69
2023/03/08 15:33:12;;;;;;;0.20;0.00;;;24.10;99.90;;;;;;21110278;28;20408;-68
2023/03/08 15:43:16;;;;;;;0.20;0.00;;;22.50;99.90;;;;;;21106929;28;20897;-68
2023/03/08 15:53:21;;;;;;;0.20;0.00;;;22.40;99.90;;;;;;21105129;28;20412;-68
2023/03/08 16:03:38;;;;;;;0.20;0.10;;;19.80;99.90;;;;;;21113933;28;20412;-68
2023/03/08 16:13:43;;;;;;;0.20;0.10;;;20.40;99.90;;;;;;21127195;28;20467;-68
2023/03/08 16:23:47;;;;;;;0.20;0.10;;;19.20;99.90;;;;;;21145707;28;20961;-66
2023/03/08 16:33:52;;;;;;;0.20;0.10;;;18.70;99.90;;;;;;21074236;28;20408;-67
2023/03/08 16:43:56;;;;;;;0.20;0.10;;;18.10;99.90;;;;;;21132976;27;20409;-68
2023/03/08 16:54:02;;;;;;;0.20;0.10;;;18.30;99.90;;;;;;21138204;28;20418;-68
2023/03/08 17:04:06;;;;;;;0.20;0.10;;;18.00;99.90;;;;;;21143195;28;20470;-68
2023/03/08 17:14:13;;;;;;;0.20;0.10;;;17.50;99.90;;;;;;21148902;28;20428;-68
2023/03/08 17:24:18;;;;;;;0.20;0.07;;;17.80;99.90;;;;;;21146519;28;20398;-68
2023/03/08 17:34:23;;;;;;;0.20;0.10;;;18.70;99.90;;;;;;21083447;28;20416;-66
2023/03/08 17:44:27;;;;;;;0.20;0.10;;;18.70;99.90;;;;;;21060505;28;20404;-69
2023/03/08 17:54:32;;;;;;;0.20;0.10;;;18.70;99.90;;;;;;21059983;28;20910;-70
2023/03/08 18:04:36;;;;;;;0.20;0.10;;;19.00;99.90;;;;;;21062003;28;20400;-69
2023/03/08 18:14:41;;;;;;;0.20;0.10;;;18.50;99.90;;;;;;21058076;28;20424;-69
2023/03/08 18:24:45;;;;;;;0.20;0.10;;;18.60;99.90;;;;;;21058269;28;20400;-69
2023/03/08 18:34:51;;;;;;;0.20;0.10;;;18.50;99.90;;;;;;21055875;28;20435;-69
2023/03/08 18:44:55;;;;;;;0.20;0.00;;;18.10;99.90;;;;;;21057696;28;20450;-68
2023/03/08 18:55:00;;;;;;;0.20;0.10;;;17.80;99.90;;;;;;21056741;28;20405;-68
2023/03/08 19:05:05;;;;;;;0.20;0.10;;;17.70;99.90;;;;;;21060568;28;20434;-69
2023/03/08 19:15:11;;;;;;;0.20;0.10;;;17.60;99.90;;;;;;21087083;28;20404;-69
2023/03/08 19:25:15;;;;;;;0.20;0.10;;;17.40;99.90;;;;;;21136814;28;20767;-68
2023/03/08 19:35:21;;;;;;;0.20;0.10;;;17.20;99.90;;;;;;21083648;28;20903;-66
2023/03/08 19:45:25;;;;;;;0.20;0.10;;;16.80;99.90;;;;;;21072924;28;20400;-68
2023/03/08 19:55:31;;;;;;;0.20;0.10;;;16.90;99.90;;;;;;21067410;28;20435;-71
2023/03/08 20:05:40;;;;;;;0.20;0.10;;;16.60;99.90;;;;;;21066994;28;20410;-68
2023/03/08 20:15:45;;;;;;;0.20;0.10;;;16.10;99.90;;;;;;21065116;28;20409;-68
2023/03/08 20:25:49;;;;;;;0.20;0.10;;;16.00;99.90;;;;;;21080107;28;20477;-71
2023/03/08 20:35:58;;;;;;;0.20;0.00;;;15.60;99.90;;;;;;21074644;28;20400;-68
2023/03/08 20:46:07;;;;;;;0.20;0.10;;;15.30;99.90;;;;;;21062474;28;20420;-69
2023/03/08 20:56:15;;;;;;;0.20;0.10;;;15.50;99.90;;;;;;21106698;28;20411;-69
2023/03/08 21:06:21;;;;;;;0.20;0.10;;;15.00;99.90;;;;;;21147562;28;20621;-70
2023/03/08 21:16:28;;;;;;;0.20;0.10;;;15.00;99.90;;;;;;21148931;28;20982;-70
2023/03/08 21:26:33;;;;;;;0.20;0.00;;;15.20;99.90;;;;;;21150343;27;20486;-68
2023/03/08 21:36:39;;;;;;;0.20;0.10;;;15.00;99.90;;;;;;21068106;27;20408;-69
2023/03/08 21:46:45;;;;;;;0.20;0.10;;;14.60;99.90;;;;;;21062826;28;20469;-69
2023/03/08 21:56:51;;;;;;;0.20;0.00;;;14.50;99.90;;;;;;21062293;28;20496;-68
2023/03/08 22:06:56;;;;;;;0.20;0.10;;;14.70;99.90;;;;;;21062387;28;20474;-68
2023/03/08 22:17:02;;;;;;;0.20;0.05;;;16.30;99.90;;;;;;21087242;28;20423;-68
2023/03/08 22:27:06;;;;;;;0.20;0.10;;;19.00;99.90;;;;;;21140448;28;20422;-69
2023/03/08 22:37:11;;;;;;;0.20;0.00;;;18.70;99.90;;;;;;21055759;28;20883;-68
2023/03/08 22:47:15;;;;;;;0.20;0.10;;;17.80;99.90;;;;;;21056340;28;20405;-67
2023/03/08 22:57:20;;;;;;;0.20;0.00;;;19.30;99.90;;;;;;21056411;28;20759;-69
2023/03/08 23:07:25;;;;;;;0.20;0.00;;;19.50;99.90;;;;;;21038265;28;20428;-70
2023/03/08 23:17:30;;;;;;;0.20;0.00;;;19.70;99.90;;;;;;21055906;28;20412;-68
2023/03/08 23:27:34;;;;;;;0.20;0.00;;;19.60;99.90;;;;;;21053856;28;20453;-68
2023/03/08 23:37:39;;;;;;;0.20;0.08;;;19.40;99.90;;;;;;21054718;28;20453;-70
2023/03/08 23:47:43;;;;;;;0.20;0.00;;;19.20;99.90;;;;;;21036790;28;20404;-69
2023/03/08 23:57:48;;;;;;;0.20;0.00;;;19.50;99.90;;;;;;21064568;28;20472;-69
